createdAt,value
2018-09-03T00:01:44.024Z,99.90
2018-09-03T00:04:13.129Z,99.90
2018-09-03T00:06:42.524Z,99.90
2018-09-03T00:09:12.239Z,99.90
2018-09-03T00:11:41.490Z,99.90
2018-09-03T00:14:18.721Z,99.90
2018-09-03T00:16:47.957Z,99.90
2018-09-03T00:19:16.512Z,99.90
2018-09-03T00:24:55.702Z,99.90
2018-09-03T00:28:02.309Z,99.90
2018-09-03T00:30:33.425Z,99.90
2018-09-03T00:33:12.278Z,99.90
2018-09-03T00:36:48.143Z,99.90
2018-09-03T00:39:22.000Z,99.90
2018-09-03T00:42:04.686Z,99.90
2018-09-03T00:44:52.200Z,99.90
2018-09-03T00:47:20.781Z,99.90
2018-09-03T00:49:49.358Z,99.90
2018-09-03T00:52:51.369Z,99.90
2018-09-03T00:55:21.005Z,99.90
2018-09-03T00:57:49.663Z,99.90
2018-09-03T01:00:18.246Z,99.90
2018-09-03T01:02:46.802Z,99.90
2018-09-03T01:05:17.251Z,99.90
2018-09-03T01:07:45.860Z,99.90
2018-09-03T01:10:39.120Z,99.90
2018-09-03T01:13:08.286Z,99.90
2018-09-03T01:16:03.200Z,99.90
2018-09-03T01:18:39.348Z,99.90
2018-09-03T01:22:09.408Z,99.90
2018-09-03T01:31:33.846Z,99.90
2018-09-03T01:34:39.806Z,99.90
2018-09-03T01:37:10.306Z,99.90
2018-09-03T01:39:39.482Z,99.90
2018-09-03T01:43:00.446Z,99.90
2018-09-03T01:45:45.947Z,99.90
2018-09-03T02:26:36.177Z,99.90
2018-09-03T02:29:05.534Z,99.90
2018-09-03T02:31:35.067Z,99.90
2018-09-03T02:34:05.685Z,99.90
2018-09-03T02:36:44.763Z,99.90
2018-09-03T02:39:13.473Z,99.90
2018-09-03T02:41:42.729Z,99.90
2018-09-03T02:47:39.409Z,99.90
2018-09-03T02:50:08.802Z,99.90
2018-09-03T02:53:16.956Z,99.90
2018-09-03T02:56:19.491Z,99.90
2018-09-03T02:58:48.077Z,99.90
2018-09-03T03:01:16.696Z,99.90
2018-09-03T03:03:46.156Z,99.90
2018-09-03T03:06:34.447Z,99.90
2018-09-03T03:09:05.187Z,99.90
2018-09-03T03:11:36.394Z,99.90
2018-09-03T03:19:02.401Z,99.90
2018-09-03T03:27:43.899Z,99.90
2018-09-03T03:30:13.306Z,99.90
2018-09-03T03:32:42.452Z,99.90
2018-09-03T03:35:20.310Z,99.90
2018-09-03T03:37:50.998Z,99.90
2018-09-03T03:40:20.148Z,99.90
2018-09-03T03:42:48.723Z,99.90
2018-09-03T03:45:17.380Z,99.90
2018-09-03T03:47:46.250Z,99.90
2018-09-03T03:50:15.345Z,99.90
2018-09-03T03:52:44.569Z,99.90
2018-09-03T03:55:13.999Z,99.90
2018-09-03T03:57:45.035Z,99.90
2018-09-03T04:00:14.005Z,99.90
2018-09-03T04:02:43.191Z,99.90
2018-09-03T04:05:12.241Z,99.90
2018-09-03T04:07:41.603Z,99.90
2018-09-03T04:10:10.522Z,99.90
2018-09-03T04:12:43.233Z,99.90
2018-09-03T04:15:12.107Z,99.90
2018-09-03T04:17:41.429Z,99.90
2018-09-03T04:20:11.015Z,99.90
2018-09-03T04:22:49.465Z,99.90
2018-09-03T04:25:18.127Z,99.90
2018-09-03T04:27:46.856Z,99.90
2018-09-03T04:30:37.286Z,99.90
2018-09-03T04:33:34.563Z,99.90
2018-09-03T04:39:46.078Z,99.90
2018-09-03T04:42:14.842Z,99.90
2018-09-03T04:44:44.735Z,99.90
2018-09-03T04:47:14.048Z,99.90
2018-09-03T04:49:43.539Z,99.90
2018-09-03T04:52:12.745Z,99.90
2018-09-03T04:54:48.481Z,99.90
2018-09-03T04:57:17.631Z,99.90
2018-09-03T05:00:04.751Z,99.90
2018-09-03T05:02:34.209Z,99.90
2018-09-03T05:05:18.260Z,99.90
2018-09-03T05:07:47.350Z,99.90
2018-09-03T05:10:16.684Z,99.90
2018-09-03T05:12:45.443Z,99.90
2018-09-03T05:15:14.749Z,99.90
2018-09-03T05:17:44.034Z,99.90
2018-09-03T05:20:13.383Z,99.90
2018-09-03T05:25:50.844Z,99.90
2018-09-03T05:28:19.392Z,99.90
2018-09-03T05:30:48.068Z,99.90
2018-09-03T05:33:16.765Z,99.90
2018-09-03T05:35:45.657Z,99.90
2018-09-03T05:38:14.866Z,99.90
2018-09-03T05:40:44.066Z,99.90
2018-09-03T05:43:20.486Z,99.90
2018-09-03T05:45:49.283Z,99.90
2018-09-03T05:48:17.880Z,99.90
2018-09-03T05:50:47.258Z,99.90
2018-09-03T05:53:17.554Z,99.90
2018-09-03T05:55:46.355Z,99.90
2018-09-03T05:58:15.179Z,99.90
2018-09-03T06:01:04.703Z,99.90
2018-09-03T06:03:34.619Z,99.90
2018-09-03T06:06:04.922Z,99.90
2018-09-03T06:08:34.868Z,99.90
2018-09-03T06:11:11.577Z,99.90
2018-09-03T06:13:41.045Z,99.90
2018-09-03T06:16:10.925Z,99.90
2018-09-03T06:18:40.271Z,99.90
2018-09-03T06:21:10.245Z,99.90
2018-09-03T06:23:39.962Z,99.90
2018-09-03T06:26:10.062Z,99.90
2018-09-03T06:28:39.572Z,99.90
2018-09-03T06:31:10.879Z,99.90
2018-09-03T06:33:40.457Z,99.90
2018-09-03T06:36:17.589Z,99.90
2018-09-03T06:38:46.945Z,99.90
2018-09-03T06:44:09.334Z,99.90
2018-09-03T07:00:34.877Z,99.90
2018-09-03T07:03:17.851Z,99.50
2018-09-03T07:05:46.618Z,99.30
2018-09-03T07:08:15.628Z,99.10
2018-09-03T07:14:06.207Z,99.40
2018-09-03T07:16:46.245Z,98.70
2018-09-03T07:19:15.368Z,98.40
2018-09-03T07:21:44.478Z,98.10
2018-09-03T07:24:14.680Z,97.80
2018-09-03T07:27:14.507Z,96.90
2018-09-03T07:29:44.709Z,97.00
2018-09-03T07:32:32.244Z,96.00
2018-09-03T07:35:10.718Z,96.10
2018-09-03T07:37:40.080Z,96.80
2018-09-03T07:40:17.496Z,97.10
2018-09-03T07:42:46.251Z,98.10
2018-09-03T07:46:03.079Z,98.70
2018-09-03T07:48:35.083Z,99.00
2018-09-03T07:51:50.572Z,98.60
2018-09-03T07:55:04.512Z,98.20
2018-09-03T07:57:46.989Z,98.00
2018-09-03T08:00:15.947Z,98.80
2018-09-03T08:02:45.567Z,97.50
2018-09-03T08:05:16.688Z,97.30
2018-09-03T08:07:46.050Z,97.30
2018-09-03T08:10:16.007Z,97.40
2018-09-03T08:12:45.155Z,98.20
2018-09-03T08:15:14.857Z,97.60
2018-09-03T08:17:44.108Z,97.70
2018-09-03T08:20:13.542Z,97.80
2018-09-03T08:22:42.946Z,97.60
2018-09-03T08:25:13.669Z,97.50
2018-09-03T08:27:43.283Z,94.80
2018-09-03T08:30:12.813Z,93.70
2018-09-03T08:32:42.241Z,92.50
2018-09-03T08:35:11.736Z,92.50
2018-09-03T08:37:41.123Z,92.60
2018-09-03T08:40:10.824Z,89.40
2018-09-03T08:42:40.605Z,85.70
2018-09-03T08:45:10.457Z,85.10
2018-09-03T08:47:41.617Z,84.10
2018-09-03T08:51:02.670Z,82.10
2018-09-03T08:53:35.161Z,81.00
2018-09-03T08:56:08.307Z,73.80
2018-09-03T08:58:37.737Z,70.10
2018-09-03T09:01:07.971Z,68.70
2018-09-03T09:03:42.633Z,64.00
2018-09-03T09:06:12.562Z,60.90
2018-09-03T09:08:42.198Z,61.30
2018-09-03T09:11:18.462Z,61.90
2018-09-03T09:13:47.039Z,60.30
2018-09-03T09:16:16.724Z,57.90
2018-09-03T09:22:04.765Z,60.50
2018-09-03T09:24:35.433Z,61.90
2018-09-03T09:30:16.699Z,62.40
2018-09-03T09:33:03.504Z,63.90
2018-09-03T09:35:38.301Z,63.30
2018-09-03T09:39:08.771Z,62.40
2018-09-03T09:41:42.629Z,62.10
2018-09-03T09:44:11.843Z,63.60
2018-09-03T09:46:42.106Z,64.10
2018-09-03T09:49:11.462Z,64.20
2018-09-03T09:51:41.069Z,64.70
2018-09-03T09:54:10.689Z,64.80
2018-09-03T09:56:40.759Z,64.90
2018-09-03T09:59:10.387Z,62.80
2018-09-03T10:01:42.109Z,63.60
2018-09-03T10:04:11.470Z,65.10
2018-09-03T10:06:40.897Z,63.60
2018-09-03T10:09:10.997Z,63.20
2018-09-03T10:15:06.626Z,60.90
2018-09-03T10:17:36.797Z,62.00
2018-09-03T10:20:07.482Z,60.30
2018-09-03T10:22:37.660Z,61.00
2018-09-03T10:25:08.739Z,61.60
2018-09-03T10:27:38.130Z,61.20
2018-09-03T10:30:07.763Z,60.90
2018-09-03T10:32:37.459Z,60.30
2018-09-03T10:35:07.401Z,60.80
2018-09-03T10:37:36.570Z,58.40
2018-09-03T10:40:07.002Z,58.80
2018-09-03T10:42:36.840Z,58.50
2018-09-03T10:45:07.492Z,59.40
2018-09-03T10:47:36.947Z,59.30
2018-09-03T10:50:06.479Z,58.70
2018-09-03T10:52:36.555Z,58.80
2018-09-03T10:55:07.058Z,58.40
2018-09-03T10:57:37.002Z,59.10
2018-09-03T11:00:07.081Z,58.40
2018-09-03T11:02:36.397Z,57.90
2018-09-03T11:05:06.141Z,59.40
2018-09-03T11:07:35.862Z,57.70
2018-09-03T11:10:05.276Z,58.70
2018-09-03T11:12:35.451Z,57.10
2018-09-03T11:15:05.564Z,57.10
2018-09-03T11:17:35.376Z,56.00
2018-09-03T11:20:08.153Z,55.90
2018-09-03T11:22:39.899Z,56.50
2018-09-03T11:25:40.026Z,57.20
2018-09-03T11:28:12.138Z,56.20
2018-09-03T11:33:38.255Z,55.30
2018-09-03T11:36:18.077Z,55.30
2018-09-03T11:38:48.766Z,54.40
2018-09-03T11:41:17.379Z,54.40
2018-09-03T11:43:46.305Z,54.70
2018-09-03T11:46:15.296Z,54.00
2018-09-03T11:48:44.569Z,53.10
2018-09-03T11:51:14.091Z,53.50
2018-09-03T11:53:43.319Z,53.20
2018-09-03T11:56:13.058Z,54.50
2018-09-03T11:58:46.830Z,53.70
2018-09-03T12:01:16.690Z,53.20
2018-09-03T12:03:46.269Z,52.00
2018-09-03T12:06:15.748Z,51.60
2018-09-03T12:08:44.971Z,51.60
2018-09-03T12:11:15.665Z,51.40
2018-09-03T12:13:46.576Z,51.80
2018-09-03T12:16:19.001Z,52.00
2018-09-03T12:18:48.669Z,51.20
2018-09-03T12:21:17.434Z,51.60
2018-09-03T12:23:46.237Z,52.10
2018-09-03T12:26:21.794Z,52.10
2018-09-03T12:29:14.642Z,52.40
2018-09-03T12:31:44.882Z,50.70
2018-09-03T12:34:14.562Z,51.20
2018-09-03T12:36:47.271Z,50.70
2018-09-03T12:39:15.879Z,51.10
2018-09-03T12:41:44.699Z,51.30
2018-09-03T12:44:13.889Z,51.00
2018-09-03T12:46:44.139Z,50.80
2018-09-03T12:49:13.464Z,51.00
2018-09-03T12:51:43.796Z,50.40
2018-09-03T12:54:13.338Z,50.10
2018-09-03T12:56:42.735Z,50.50
2018-09-03T12:59:12.374Z,51.20
2018-09-03T13:01:43.164Z,50.50
2018-09-03T13:04:12.402Z,50.40
2018-09-03T13:06:41.882Z,50.70
2018-09-03T13:09:12.178Z,50.70
2018-09-03T13:11:42.034Z,51.40
2018-09-03T13:14:12.395Z,51.40
2018-09-03T13:16:41.912Z,50.80
2018-09-03T13:19:11.921Z,51.00
2018-09-03T13:21:42.231Z,49.10
2018-09-03T13:24:12.130Z,49.10
2018-09-03T13:26:51.757Z,48.70
2018-09-03T13:29:20.354Z,48.70
2018-09-03T13:31:48.958Z,48.70
2018-09-03T13:34:17.923Z,48.20
2018-09-03T13:36:47.321Z,47.30
2018-09-03T13:39:16.122Z,47.80
2018-09-03T13:41:45.611Z,48.10
2018-09-03T13:44:15.241Z,48.20
2018-09-03T13:46:44.688Z,48.40
2018-09-03T13:49:14.411Z,49.50
2018-09-03T13:51:44.076Z,49.80
2018-09-03T13:54:13.652Z,49.20
2018-09-03T13:57:11.237Z,49.80
2018-09-03T13:59:47.218Z,50.00
2018-09-03T14:02:16.282Z,50.00
2018-09-03T14:04:45.637Z,50.00
2018-09-03T14:07:15.515Z,50.10
2018-09-03T14:09:45.468Z,49.60
2018-09-03T14:12:15.440Z,49.70
2018-09-03T14:14:44.556Z,50.30
2018-09-03T14:17:13.882Z,50.40
2018-09-03T14:19:43.419Z,50.00
2018-09-03T14:22:13.216Z,49.90
2018-09-03T14:24:41.814Z,49.70
2018-09-03T14:27:11.515Z,49.90
2018-09-03T14:29:41.128Z,50.00
2018-09-03T14:32:11.243Z,50.20
2018-09-03T14:34:41.338Z,50.30
2018-09-03T14:37:10.772Z,49.40
2018-09-03T14:39:40.822Z,49.60
2018-09-03T14:42:11.661Z,50.40
2018-09-03T14:44:41.548Z,50.40
2018-09-03T14:47:11.472Z,50.30
2018-09-03T14:49:41.631Z,49.90
2018-09-03T14:52:11.188Z,49.70
2018-09-03T14:54:42.196Z,50.20
2018-09-03T14:57:15.245Z,49.90
2018-09-03T14:59:44.775Z,50.20
2018-09-03T15:02:14.420Z,51.10
2018-09-03T15:08:06.113Z,50.80
2018-09-03T15:11:09.960Z,50.50
2018-09-03T15:13:41.945Z,50.20
2018-09-03T15:16:21.315Z,50.60
2018-09-03T15:19:08.696Z,51.20
2018-09-03T15:21:38.538Z,52.50
2018-09-03T15:24:17.508Z,52.90
2018-09-03T15:26:56.611Z,52.30
2018-09-03T15:29:26.031Z,52.30
2018-09-03T15:32:17.509Z,52.30
2018-09-03T15:34:50.669Z,52.70
2018-09-03T15:37:28.621Z,52.80
2018-09-03T15:40:02.250Z,52.80
2018-09-03T15:42:32.000Z,52.20
2018-09-03T15:45:02.851Z,51.80
2018-09-03T15:47:33.167Z,52.00
2018-09-03T15:50:03.195Z,52.30
2018-09-03T15:52:32.291Z,52.20
2018-09-03T15:55:01.748Z,52.10
2018-09-03T15:57:31.086Z,53.30
2018-09-03T16:00:00.973Z,53.10
2018-09-03T16:02:54.577Z,53.50
2018-09-03T16:05:25.696Z,53.60
2018-09-03T16:07:55.931Z,53.40
2018-09-03T16:10:26.202Z,53.70
2018-09-03T16:12:56.065Z,53.50
2018-09-03T16:15:25.812Z,53.50
2018-09-03T16:17:56.467Z,53.40
2018-09-03T16:20:26.111Z,53.60
2018-09-03T16:22:55.657Z,53.70
2018-09-03T16:25:26.321Z,53.60
2018-09-03T16:27:55.908Z,53.50
2018-09-03T16:30:33.345Z,53.70
2018-09-03T16:33:10.824Z,53.60
2018-09-03T16:35:44.749Z,53.60
2018-09-03T16:38:18.147Z,53.70
2018-09-03T16:40:50.774Z,54.00
2018-09-03T16:43:21.236Z,54.10
2018-09-03T16:45:51.064Z,54.00
2018-09-03T16:48:21.548Z,54.40
2018-09-03T16:50:51.192Z,54.30
2018-09-03T16:53:21.302Z,54.50
2018-09-03T16:55:51.282Z,54.70
2018-09-03T16:58:21.263Z,54.90
2018-09-03T17:00:53.343Z,55.20
2018-09-03T17:03:26.279Z,55.00
2018-09-03T17:05:56.574Z,55.10
2018-09-03T17:08:26.083Z,55.20
2018-09-03T17:11:25.458Z,55.30
2018-09-03T17:14:29.336Z,55.40
2018-09-03T17:16:58.828Z,55.40
2018-09-03T17:19:29.005Z,55.90
2018-09-03T17:21:59.276Z,56.40
2018-09-03T17:24:28.912Z,56.40
2018-09-03T17:26:58.674Z,56.80
2018-09-03T17:29:27.192Z,57.00
2018-09-03T17:31:56.775Z,57.20
2018-09-03T17:34:26.053Z,58.00
2018-09-03T17:36:55.711Z,58.50
2018-09-03T17:39:25.393Z,58.90
2018-09-03T17:41:55.052Z,59.40
2018-09-03T17:44:24.539Z,59.80
2018-09-03T17:46:53.851Z,60.20
2018-09-03T17:49:23.997Z,61.10
2018-09-03T17:51:54.028Z,62.80
2018-09-03T17:54:23.446Z,64.70
2018-09-03T17:56:54.221Z,67.40
2018-09-03T17:59:24.267Z,69.60
2018-09-03T18:01:54.051Z,73.40
2018-09-03T18:04:23.727Z,74.70
2018-09-03T18:06:53.927Z,76.60
2018-09-03T18:09:23.610Z,80.00
2018-09-03T18:11:53.447Z,82.70
2018-09-03T18:14:23.133Z,85.00
2018-09-03T18:16:53.338Z,87.60
2018-09-03T18:19:23.905Z,90.30
2018-09-03T18:21:53.495Z,91.20
2018-09-03T18:24:23.938Z,92.60
2018-09-03T18:26:54.529Z,93.50
2018-09-03T18:29:24.757Z,94.60
2018-09-03T18:31:55.927Z,95.60
2018-09-03T18:34:25.783Z,96.30
2018-09-03T18:36:55.433Z,97.10
2018-09-03T18:39:24.897Z,97.80
2018-09-03T18:41:54.402Z,98.30
2018-09-03T18:44:23.876Z,98.70
2018-09-03T18:46:53.602Z,99.10
2018-09-03T18:49:22.863Z,99.50
2018-09-03T18:51:52.170Z,99.90
2018-09-03T18:54:21.926Z,99.70
2018-09-03T18:56:51.381Z,98.70
2018-09-03T18:59:20.868Z,97.10
2018-09-03T19:01:51.230Z,96.70
2018-09-03T19:04:21.156Z,96.60
2018-09-03T19:06:51.257Z,96.30
2018-09-03T19:09:21.778Z,96.10
2018-09-03T19:11:51.875Z,95.70
2018-09-03T19:14:22.026Z,95.30
2018-09-03T19:16:52.444Z,95.60
2018-09-03T19:19:23.190Z,95.50
2018-09-03T19:21:53.108Z,95.20
2018-09-03T19:24:23.387Z,95.30
2018-09-03T19:26:53.607Z,95.60
2018-09-03T19:29:23.443Z,95.30
2018-09-03T19:31:53.122Z,95.30
2018-09-03T19:34:22.596Z,95.30
2018-09-03T19:36:52.534Z,95.60
2018-09-03T19:39:23.036Z,95.80
2018-09-03T19:41:52.985Z,95.90
2018-09-03T19:44:23.128Z,96.00
2018-09-03T19:46:52.675Z,96.20
2018-09-03T19:49:22.313Z,96.20
2018-09-03T19:51:52.948Z,96.40
2018-09-03T19:54:22.501Z,96.50
2018-09-03T19:56:51.959Z,96.90
2018-09-03T19:59:21.703Z,97.60
2018-09-03T20:01:51.559Z,97.90
2018-09-03T20:04:21.083Z,98.10
2018-09-03T20:06:51.648Z,98.30
2018-09-03T20:09:21.310Z,98.30
2018-09-03T20:11:51.190Z,98.30
2018-09-03T20:14:20.876Z,98.30
2018-09-03T20:16:50.336Z,98.50
2018-09-03T20:19:19.849Z,98.90
2018-09-03T20:21:49.558Z,99.00
2018-09-03T20:24:20.496Z,99.30
2018-09-03T20:26:50.082Z,99.50
2018-09-03T20:29:22.896Z,99.90
2018-09-03T20:31:52.915Z,99.90
2018-09-03T20:34:22.300Z,99.90
2018-09-03T20:36:52.072Z,99.90
2018-09-03T20:39:22.462Z,99.90
2018-09-03T20:41:51.462Z,99.90
2018-09-03T20:44:21.362Z,99.90
2018-09-03T20:46:51.567Z,99.90
2018-09-03T20:49:21.885Z,99.90
2018-09-03T20:51:51.326Z,99.90
2018-09-03T20:54:21.836Z,99.90
2018-09-03T20:56:51.280Z,99.90
2018-09-03T20:59:21.434Z,99.90
2018-09-03T21:01:51.278Z,99.90
2018-09-03T21:04:20.623Z,99.90
2018-09-03T21:06:50.413Z,99.90
2018-09-03T21:09:20.233Z,99.90
2018-09-03T21:11:50.670Z,99.90
2018-09-03T21:14:20.935Z,99.90
2018-09-03T21:16:52.325Z,99.90
2018-09-03T21:19:21.942Z,99.90
2018-09-03T21:21:51.552Z,99.90
2018-09-03T21:24:21.601Z,99.90
2018-09-03T21:26:51.534Z,99.90
2018-09-03T21:29:22.560Z,99.90
2018-09-03T21:32:12.068Z,99.90
2018-09-03T21:34:46.583Z,99.90
2018-09-03T21:37:21.271Z,99.90
2018-09-03T21:39:51.580Z,99.90
2018-09-03T21:42:25.103Z,99.90
2018-09-03T21:44:54.779Z,99.90
2018-09-03T21:47:24.105Z,99.90
2018-09-03T21:49:53.558Z,99.90
2018-09-03T21:52:23.793Z,99.90
2018-09-03T21:55:28.449Z,99.90
2018-09-03T21:57:58.212Z,99.90
2018-09-03T22:00:28.354Z,99.90
2018-09-03T22:02:58.866Z,99.90
2018-09-03T22:05:28.229Z,99.90
2018-09-03T22:08:00.231Z,99.90
2018-09-03T22:10:37.041Z,99.90
2018-09-03T22:13:40.439Z,99.90
2018-09-03T22:16:13.073Z,99.90
2018-09-03T22:19:06.124Z,99.90
2018-09-03T22:21:35.363Z,99.90
2018-09-03T22:24:05.293Z,99.90
2018-09-03T22:26:34.570Z,99.90
2018-09-03T22:29:04.151Z,99.90
2018-09-03T22:31:33.570Z,99.90
2018-09-03T22:34:03.199Z,99.90
2018-09-03T22:36:53.312Z,99.90
2018-09-03T22:42:27.687Z,99.90
2018-09-03T22:44:58.468Z,99.90
2018-09-03T22:47:39.095Z,99.90
2018-09-03T22:50:07.731Z,99.90
2018-09-03T22:52:37.051Z,99.90
2018-09-03T22:55:05.752Z,99.90
2018-09-03T22:57:34.258Z,99.90
2018-09-03T23:00:03.846Z,99.90
2018-09-03T23:02:37.224Z,99.90
2018-09-03T23:05:06.044Z,99.90
2018-09-03T23:08:23.060Z,99.90
2018-09-03T23:10:52.969Z,99.90
2018-09-03T23:13:21.621Z,99.90
2018-09-03T23:16:05.282Z,99.90
2018-09-03T23:18:34.778Z,99.90
2018-09-03T23:21:04.276Z,99.90
2018-09-03T23:23:33.694Z,99.90
2018-09-03T23:26:03.454Z,99.90
2018-09-03T23:31:39.844Z,99.90
2018-09-03T23:40:55.108Z,99.90
2018-09-03T23:43:36.491Z,99.90
2018-09-03T23:46:21.730Z,99.90
2018-09-03T23:49:26.169Z,99.90
2018-09-03T23:51:55.472Z,99.90
2018-09-03T23:54:28.455Z,99.90
2018-09-03T23:57:07.380Z,99.90
